Time;durP1;ratioP1;P1;durP2;ratioP2;P2;SDS_P1;SDS_P2;PMS_P1;PMS_P2;Temp;Humidity;BMP_temperature;BMP_pressure;BME280_temperature;BME280_humidity;BME280_pressure;Samples;Min_cycle;Max_cycle;Signal;HPM_P1;HPM_P2
2022/06/16 00:01:01;;;;;;;1.88;1.35;;;;;;;;;;4972514;28;20081;-81
2022/06/16 00:03:26;;;;;;;1.70;1.60;;;;;;;;;;4972392;28;20039;-80
2022/06/16 00:05:52;;;;;;;1.85;1.40;;;;;;;;;;4973728;28;20042;-80
2022/06/16 00:08:18;;;;;;;2.45;1.52;;;;;;;;;;4972072;28;20038;-80
2022/06/16 00:13:31;;;;;;;2.83;1.60;;;;;;;;;;4973478;28;20034;-81
2022/06/16 00:15:57;;;;;;;1.70;1.40;;;;;;;;;;4973258;28;20031;-80
2022/06/16 00:18:22;;;;;;;2.92;1.80;;;;;;;;;;4971846;28;20034;-80
2022/06/16 00:20:48;;;;;;;2.85;1.70;;;;;;;;;;4971962;28;20055;-80
2022/06/16 00:23:13;;;;;;;1.85;1.30;;;;;;;;;;4972028;28;20027;-80
2022/06/16 00:25:38;;;;;;;2.15;1.40;;;;;;;;;;4955676;28;20027;-80
2022/06/16 00:28:04;;;;;;;1.50;1.25;;;;;;;;;;4973428;28;20026;-80
2022/06/16 00:30:29;;;;;;;1.75;1.40;;;;;;;;;;4971686;28;20074;-80
2022/06/16 00:32:54;;;;;;;3.00;1.52;;;;;;;;;;4972185;28;20034;-80
2022/06/16 00:35:20;;;;;;;2.28;1.63;;;;;;;;;;4972182;28;20101;-80
2022/06/16 00:37:45;;;;;;;1.73;1.42;;;;;;;;;;4973468;28;20340;-80
2022/06/16 00:40:11;;;;;;;1.52;1.20;;;;;;;;;;4973338;28;20027;-80
2022/06/16 00:42:37;;;;;;;1.80;1.40;;;;;;;;;;4973370;28;20030;-80
2022/06/16 00:45:41;;;;;;;1.83;1.45;;;;;;;;;;4971981;28;20023;-80
2022/06/16 00:48:07;;;;;;;2.95;1.55;;;;;;;;;;4972996;28;20107;-81
2022/06/16 00:50:32;;;;;;;1.77;1.40;;;;;;;;;;4955953;28;20046;-80
2022/06/16 00:52:58;;;;;;;2.22;1.20;;;;;;;;;;4973715;28;20074;-80
2022/06/16 00:55:26;;;;;;;2.35;1.63;;;;;;;;;;4976631;28;20030;-80
2022/06/16 00:57:51;;;;;;;1.80;1.50;;;;;;;;;;4975316;28;20356;-79
2022/06/16 01:02:45;;;;;;;1.88;1.40;;;;;;;;;;4977061;28;20027;-80
2022/06/16 01:05:10;;;;;;;2.42;1.70;;;;;;;;;;4959019;28;20038;-80
2022/06/16 01:07:39;;;;;;;1.80;1.30;;;;;;;;;;4976138;28;20030;-80
2022/06/16 01:10:06;;;;;;;2.80;1.73;;;;;;;;;;4975420;28;20109;-80
2022/06/16 01:16:06;;;;;;;2.05;1.40;;;;;;;;;;4975221;28;20057;-80
2022/06/16 01:18:53;;;;;;;2.15;1.52;;;;;;;;;;4976078;28;20105;-80
2022/06/16 01:21:35;;;;;;;1.40;1.30;;;;;;;;;;4974659;28;20046;-80
2022/06/16 01:24:01;;;;;;;2.75;1.50;;;;;;;;;;4976002;28;20113;-79
2022/06/16 01:26:38;;;;;;;1.67;1.20;;;;;;;;;;4976218;28;20523;-79
2022/06/16 01:29:10;;;;;;;3.28;1.80;;;;;;;;;;4975947;28;20022;-79
2022/06/16 01:31:55;;;;;;;2.10;1.30;;;;;;;;;;4976017;28;20438;-79
2022/06/16 01:34:29;;;;;;;2.38;1.30;;;;;;;;;;4975707;28;20031;-79
2022/06/16 01:37:19;;;;;;;2.70;1.60;;;;;;;;;;4975712;28;20038;-79
2022/06/16 01:40:02;;;;;;;2.55;1.40;;;;;;;;;;4975911;28;20034;-80
2022/06/16 01:42:49;;;;;;;1.42;1.33;;;;;;;;;;4975695;28;20027;-80
2022/06/16 01:45:38;;;;;;;2.10;1.30;;;;;;;;;;4974388;28;20035;-80
2022/06/16 01:48:07;;;;;;;1.38;1.27;;;;;;;;;;4975434;28;20050;-80
2022/06/16 01:50:36;;;;;;;1.60;1.50;;;;;;;;;;4975713;28;20035;-80
2022/06/16 01:53:06;;;;;;;2.17;1.60;;;;;;;;;;4974223;28;20054;-79
2022/06/16 01:55:34;;;;;;;2.58;1.58;;;;;;;;;;4958179;28;20018;-79
2022/06/16 01:58:22;;;;;;;2.30;1.40;;;;;;;;;;4957860;28;20411;-80
2022/06/16 02:00:48;;;;;;;1.48;1.38;;;;;;;;;;4974378;28;20019;-79
2022/06/16 02:03:43;;;;;;;2.90;1.52;;;;;;;;;;4974122;28;20030;-78
2022/06/16 02:06:31;;;;;;;2.13;1.55;;;;;;;;;;4972638;28;20035;-79
2022/06/16 02:09:06;;;;;;;1.60;1.50;;;;;;;;;;4974735;28;20403;-79
2022/06/16 02:11:33;;;;;;;2.30;1.70;;;;;;;;;;4957914;28;20023;-79
2022/06/16 02:14:07;;;;;;;2.45;1.67;;;;;;;;;;4973870;28;20027;-79
2022/06/16 02:16:34;;;;;;;1.58;1.48;;;;;;;;;;4973759;28;20027;-79
2022/06/16 02:19:00;;;;;;;1.63;1.50;;;;;;;;;;4973806;28;20078;-78
2022/06/16 02:21:38;;;;;;;1.60;1.50;;;;;;;;;;4973698;28;20105;-79
2022/06/16 02:24:05;;;;;;;1.63;1.50;;;;;;;;;;4957534;28;20042;-79
2022/06/16 02:26:31;;;;;;;2.20;1.50;;;;;;;;;;4957690;28;20428;-79
2022/06/16 02:29:00;;;;;;;1.88;1.60;;;;;;;;;;4973593;28;20456;-79
2022/06/16 02:31:28;;;;;;;2.13;1.60;;;;;;;;;;4973756;28;20022;-79
2022/06/16 02:33:57;;;;;;;2.58;1.50;;;;;;;;;;4974587;28;20029;-79
2022/06/16 02:36:28;;;;;;;1.67;1.30;;;;;;;;;;4974998;28;20101;-79
2022/06/16 02:38:57;;;;;;;2.67;1.58;;;;;;;;;;4973822;28;20023;-79
2022/06/16 02:42:01;;;;;;;2.80;1.70;;;;;;;;;;4974877;28;20035;-78
2022/06/16 02:45:04;;;;;;;1.90;1.40;;;;;;;;;;4974947;28;20030;-78
2022/06/16 02:47:47;;;;;;;2.20;1.60;;;;;;;;;;4974916;28;20030;-78
2022/06/16 02:50:23;;;;;;;1.50;1.40;;;;;;;;;;4958455;28;20038;-80
2022/06/16 02:52:54;;;;;;;1.25;1.20;;;;;;;;;;4957094;28;20083;-79
2022/06/16 02:55:30;;;;;;;2.55;1.50;;;;;;;;;;4973379;28;20102;-80
2022/06/16 02:57:58;;;;;;;1.83;1.30;;;;;;;;;;4973120;28;20491;-79
2022/06/16 03:00:35;;;;;;;2.13;1.50;;;;;;;;;;4973412;28;20387;-79
2022/06/16 03:03:23;;;;;;;1.88;1.42;;;;;;;;;;4956943;28;20034;-79
2022/06/16 03:05:52;;;;;;;1.63;1.40;;;;;;;;;;4974541;28;20061;-79
2022/06/16 03:08:18;;;;;;;2.75;1.50;;;;;;;;;;4956750;28;20034;-79
2022/06/16 03:10:52;;;;;;;1.58;1.48;;;;;;;;;;4973567;28;20039;-81
2022/06/16 03:13:24;;;;;;;2.03;1.40;;;;;;;;;;4974428;28;20030;-78
2022/06/16 03:15:51;;;;;;;1.58;1.35;;;;;;;;;;4956140;28;20114;-78
2022/06/16 03:18:18;;;;;;;1.70;1.50;;;;;;;;;;4972912;28;20170;-78
2022/06/16 03:20:43;;;;;;;1.80;1.70;;;;;;;;;;4956246;28;20526;-78
2022/06/16 03:23:09;;;;;;;1.60;1.50;;;;;;;;;;4973930;28;20032;-78
2022/06/16 03:25:34;;;;;;;2.55;1.58;;;;;;;;;;4974061;28;20042;-81
2022/06/16 03:28:00;;;;;;;1.60;1.50;;;;;;;;;;4972665;28;20415;-80
2022/06/16 03:30:25;;;;;;;1.98;1.45;;;;;;;;;;4956760;28;20122;-80
2022/06/16 03:32:51;;;;;;;1.98;1.67;;;;;;;;;;4972735;28;20479;-80
2022/06/16 03:35:16;;;;;;;1.73;1.30;;;;;;;;;;4973996;28;20035;-80
2022/06/16 03:37:42;;;;;;;1.98;1.60;;;;;;;;;;4972413;28;20031;-80
2022/06/16 03:40:11;;;;;;;1.85;1.60;;;;;;;;;;4956553;28;20034;-80
2022/06/16 03:42:36;;;;;;;2.03;1.50;;;;;;;;;;4974226;28;20177;-80
2022/06/16 03:45:02;;;;;;;2.53;1.65;;;;;;;;;;4972498;28;20538;-80
2022/06/16 03:47:27;;;;;;;1.48;1.38;;;;;;;;;;4972261;28;20061;-79
2022/06/16 03:49:53;;;;;;;1.70;1.60;;;;;;;;;;4956450;28;20034;-79
2022/06/16 03:52:18;;;;;;;3.05;1.50;;;;;;;;;;4972164;28;20035;-79
2022/06/16 03:54:44;;;;;;;2.10;1.52;;;;;;;;;;4972453;28;20030;-79
2022/06/16 03:57:09;;;;;;;2.40;1.60;;;;;;;;;;4955987;28;20050;-80
2022/06/16 03:59:35;;;;;;;1.90;1.70;;;;;;;;;;4972285;28;20031;-80
2022/06/16 04:02:00;;;;;;;2.67;1.45;;;;;;;;;;4971996;28;20467;-80
2022/06/16 04:04:26;;;;;;;2.00;1.27;;;;;;;;;;4971766;28;20085;-80
2022/06/16 04:06:51;;;;;;;1.63;1.35;;;;;;;;;;4972071;28;20102;-79
2022/06/16 04:09:17;;;;;;;2.47;1.65;;;;;;;;;;4973264;28;20109;-81
2022/06/16 04:11:42;;;;;;;2.45;1.60;;;;;;;;;;4956223;28;20031;-78
2022/06/16 04:14:12;;;;;;;6.05;2.03;;;;;;;;;;4973454;28;20435;-78
2022/06/16 04:16:43;;;;;;;3.53;2.05;;;;;;;;;;4955891;28;20031;-78
2022/06/16 04:19:11;;;;;;;3.92;1.88;;;;;;;;;;4972231;28;20022;-78
2022/06/16 04:21:38;;;;;;;3.28;2.47;;;;;;;;;;4971903;28;20068;-78
2022/06/16 04:24:04;;;;;;;6.75;1.90;;;;;;;;;;4956053;28;20047;-80
2022/06/16 04:26:29;;;;;;;7.20;1.98;;;;;;;;;;4972016;28;20476;-78
2022/06/16 04:28:55;;;;;;;4.78;2.00;;;;;;;;;;4975377;28;20027;-78
2022/06/16 04:31:20;;;;;;;4.90;1.85;;;;;;;;;;4960053;28;20034;-78
2022/06/16 04:33:46;;;;;;;5.50;1.52;;;;;;;;;;4944811;28;20126;-78
2022/06/16 04:36:13;;;;;;;1.77;1.55;;;;;;;;;;4978115;28;20486;-78
2022/06/16 04:38:38;;;;;;;4.00;1.50;;;;;;;;;;4978244;28;20114;-79
2022/06/16 04:41:03;;;;;;;2.42;1.73;;;;;;;;;;4976711;28;20518;-78
2022/06/16 04:43:30;;;;;;;3.08;2.00;;;;;;;;;;4960629;28;20035;-79
2022/06/16 04:45:57;;;;;;;2.55;1.60;;;;;;;;;;4976689;28;20049;-80
2022/06/16 04:48:23;;;;;;;2.65;1.50;;;;;;;;;;4976859;28;20027;-80
2022/06/16 04:50:48;;;;;;;3.40;1.80;;;;;;;;;;4976682;28;20030;-80
2022/06/16 04:53:14;;;;;;;4.53;1.52;;;;;;;;;;4976473;28;20078;-78
2022/06/16 04:55:39;;;;;;;3.58;1.80;;;;;;;;;;4978109;28;20035;-78
2022/06/16 04:58:06;;;;;;;3.38;1.70;;;;;;;;;;4960755;28;20034;-79
2022/06/16 05:00:31;;;;;;;2.58;1.70;;;;;;;;;;4961812;28;20031;-80
2022/06/16 05:02:57;;;;;;;2.75;1.83;;;;;;;;;;4977894;28;20034;-80
2022/06/16 05:05:22;;;;;;;2.75;1.80;;;;;;;;;;4960478;28;20037;-80
2022/06/16 05:07:48;;;;;;;2.55;1.67;;;;;;;;;;4976805;28;20078;-81
2022/06/16 05:10:14;;;;;;;3.35;1.70;;;;;;;;;;4960334;28;20523;-81
2022/06/16 05:12:39;;;;;;;5.50;1.90;;;;;;;;;;4977275;28;20054;-80
2022/06/16 05:15:05;;;;;;;9.93;2.85;;;;;;;;;;4977314;28;20031;-80
2022/06/16 05:17:31;;;;;;;4.45;2.50;;;;;;;;;;4960014;28;20031;-80
2022/06/16 05:19:56;;;;;;;4.55;2.10;;;;;;;;;;4976179;28;20034;-80
2022/06/16 05:22:21;;;;;;;8.98;2.28;;;;;;;;;;4977730;28;20034;-80
2022/06/16 05:24:47;;;;;;;6.05;2.20;;;;;;;;;;4976761;28;20088;-81
2022/06/16 05:27:13;;;;;;;3.53;2.08;;;;;;;;;;4976464;28;20038;-80
2022/06/16 05:29:38;;;;;;;4.07;2.00;;;;;;;;;;4977284;28;20027;-80
2022/06/16 05:32:04;;;;;;;4.47;2.08;;;;;;;;;;4976772;28;20045;-80
2022/06/16 05:34:29;;;;;;;4.22;2.25;;;;;;;;;;4977967;28;20034;-81
2022/06/16 05:36:55;;;;;;;4.40;1.70;;;;;;;;;;4978525;28;20027;-79
2022/06/16 05:39:20;;;;;;;7.05;2.30;;;;;;;;;;4977144;28;20042;-80
2022/06/16 05:41:46;;;;;;;3.13;1.52;;;;;;;;;;4976682;28;20122;-79
2022/06/16 05:44:12;;;;;;;3.70;1.77;;;;;;;;;;4976801;28;20031;-81
2022/06/16 05:46:37;;;;;;;3.40;1.80;;;;;;;;;;4976720;28;20023;-81
2022/06/16 05:49:04;;;;;;;4.50;1.90;;;;;;;;;;4978411;28;20027;-80
2022/06/16 05:51:29;;;;;;;4.50;2.30;;;;;;;;;;4978770;28;20027;-80
2022/06/16 05:53:55;;;;;;;4.88;1.80;;;;;;;;;;4978416;28;20030;-80
2022/06/16 05:56:20;;;;;;;4.70;1.90;;;;;;;;;;4976353;28;20479;-80
2022/06/16 05:58:46;;;;;;;4.80;1.70;;;;;;;;;;4976796;28;20058;-81
2022/06/16 06:01:13;;;;;;;2.55;1.45;;;;;;;;;;4976624;28;20035;-81
2022/06/16 06:03:40;;;;;;;4.50;2.05;;;;;;;;;;4977023;28;20026;-82
2022/06/16 06:06:06;;;;;;;2.00;1.27;;;;;;;;;;4976032;28;20081;-81
2022/06/16 06:17:03;;;;;;;4.63;1.42;;;;;;;;;;4976773;28;20038;-81
2022/06/16 06:19:31;;;;;;;2.25;1.50;;;;;;;;;;4959636;28;20031;-81
2022/06/16 06:22:00;;;;;;;1.90;1.23;;;;;;;;;;4976039;28;20055;-80
2022/06/16 06:24:35;;;;;;;2.72;1.60;;;;;;;;;;4976898;28;20419;-80
2022/06/16 06:27:05;;;;;;;3.08;1.35;;;;;;;;;;4976854;28;20030;-81
2022/06/16 06:29:31;;;;;;;2.00;1.38;;;;;;;;;;4975557;28;20486;-81
2022/06/16 06:31:57;;;;;;;3.17;1.25;;;;;;;;;;4976090;28;20089;-81
2022/06/16 06:34:23;;;;;;;1.30;1.17;;;;;;;;;;4975093;28;20035;-83
2022/06/16 06:36:49;;;;;;;2.95;1.40;;;;;;;;;;4976264;28;20031;-82
2022/06/16 06:39:14;;;;;;;2.28;1.20;;;;;;;;;;4975612;28;20037;-81
2022/06/16 06:41:40;;;;;;;1.55;1.10;;;;;;;;;;4958289;28;20117;-81
2022/06/16 06:44:05;;;;;;;4.68;1.40;;;;;;;;;;4975848;28;20027;-81
2022/06/16 06:46:30;;;;;;;3.28;1.30;;;;;;;;;;4974719;28;20445;-82
2022/06/16 06:48:56;;;;;;;2.03;1.13;;;;;;;;;;4942369;28;20031;-81
2022/06/16 06:51:21;;;;;;;1.67;1.05;;;;;;;;;;4973586;28;20049;-80
2022/06/16 06:53:47;;;;;;;2.40;1.00;;;;;;;;;;4974348;28;20026;-80
2022/06/16 06:56:13;;;;;;;5.47;1.10;;;;;;;;;;4958099;28;20512;-81
2022/06/16 06:58:39;;;;;;;3.25;1.50;;;;;;;;;;4958027;28;20483;-81
2022/06/16 07:01:06;;;;;;;1.92;1.48;;;;;;;;;;4975218;28;20030;-81
2022/06/16 07:03:32;;;;;;;4.40;1.13;;;;;;;;;;4974477;28;20113;-82
2022/06/16 07:05:59;;;;;;;1.60;1.08;;;;;;;;;;4976296;28;20067;-80
2022/06/16 07:08:24;;;;;;;3.05;0.90;;;;;;;;;;4974465;28;20146;-80
2022/06/16 07:10:50;;;;;;;1.98;1.00;;;;;;;;;;4975530;28;20121;-81
2022/06/16 07:13:15;;;;;;;1.58;1.00;;;;;;;;;;4973947;28;20518;-81
2022/06/16 07:15:40;;;;;;;4.18;0.93;;;;;;;;;;4975862;28;20031;-82
2022/06/16 07:18:06;;;;;;;0.88;0.88;;;;;;;;;;4975598;28;20058;-82
2022/06/16 07:20:32;;;;;;;1.38;0.90;;;;;;;;;;4975018;28;20053;-82
2022/06/16 07:22:58;;;;;;;2.95;1.23;;;;;;;;;;4974026;28;20073;-82
2022/06/16 07:25:23;;;;;;;3.00;0.98;;;;;;;;;;4973828;28;20062;-81
2022/06/16 07:27:48;;;;;;;1.80;1.02;;;;;;;;;;4973842;28;20039;-82
2022/06/16 07:30:17;;;;;;;2.38;1.33;;;;;;;;;;4974798;28;20089;-82
2022/06/16 07:32:44;;;;;;;1.58;0.95;;;;;;;;;;4973612;28;20065;-80
2022/06/16 07:35:11;;;;;;;1.27;1.00;;;;;;;;;;4973844;28;20069;-80
2022/06/16 07:37:36;;;;;;;0.93;0.85;;;;;;;;;;4957849;28;20046;-80
2022/06/16 07:40:03;;;;;;;1.63;0.98;;;;;;;;;;4973900;28;20074;-81
2022/06/16 07:42:29;;;;;;;1.42;0.77;;;;;;;;;;4973483;28;20039;-80
2022/06/16 07:44:54;;;;;;;1.60;1.20;;;;;;;;;;4975072;28;20445;-81
2022/06/16 07:47:20;;;;;;;1.48;0.93;;;;;;;;;;4973383;28;20029;-81
2022/06/16 07:49:49;;;;;;;1.30;0.90;;;;;;;;;;4974976;28;20030;-80
2022/06/16 07:52:15;;;;;;;1.98;0.88;;;;;;;;;;4957633;28;20446;-80
2022/06/16 07:54:40;;;;;;;1.10;1.00;;;;;;;;;;4973348;28;20073;-80
2022/06/16 07:57:06;;;;;;;0.90;0.90;;;;;;;;;;4957334;28;20066;-80
2022/06/16 07:59:31;;;;;;;2.92;0.90;;;;;;;;;;4974767;28;20051;-81
2022/06/16 08:01:57;;;;;;;1.55;0.93;;;;;;;;;;4959014;28;20101;-81
2022/06/16 08:04:22;;;;;;;3.72;1.05;;;;;;;;;;4961226;28;20477;-80
2022/06/16 08:06:47;;;;;;;1.73;1.02;;;;;;;;;;4961561;28;20031;-80
2022/06/16 08:09:13;;;;;;;1.05;0.80;;;;;;;;;;4977109;28;20035;-79
2022/06/16 08:14:23;;;;;;;0.80;0.80;;;;;;;;;;4978347;28;20037;-79
2022/06/16 08:16:48;;;;;;;1.48;1.10;;;;;;;;;;4977298;28;20027;-79
2022/06/16 08:19:14;;;;;;;1.20;0.88;;;;;;;;;;4978387;28;20033;-81
2022/06/16 08:21:39;;;;;;;0.80;0.80;;;;;;;;;;4977200;28;20082;-80
2022/06/16 08:24:06;;;;;;;1.10;1.00;;;;;;;;;;4978564;28;20035;-80
2022/06/16 08:26:31;;;;;;;1.23;0.90;;;;;;;;;;4961005;28;20030;-80
2022/06/16 08:28:57;;;;;;;1.75;1.08;;;;;;;;;;4976950;28;20090;-81
2022/06/16 08:31:23;;;;;;;1.55;0.98;;;;;;;;;;4978153;28;20027;-81
2022/06/16 08:33:50;;;;;;;4.97;1.60;;;;;;;;;;4976990;28;20030;-81
2022/06/16 08:36:16;;;;;;;1.65;1.00;;;;;;;;;;4961150;28;20446;-82
2022/06/16 08:38:41;;;;;;;4.53;1.00;;;;;;;;;;4960796;28;20034;-81
2022/06/16 08:41:13;;;;;;;2.95;0.98;;;;;;;;;;4977112;28;20384;-81
2022/06/16 08:44:05;;;;;;;1.77;1.13;;;;;;;;;;4961692;28;20031;-81
2022/06/16 08:46:44;;;;;;;0.98;0.90;;;;;;;;;;4970915;28;20077;-81
2022/06/16 08:49:26;;;;;;;1.80;0.90;;;;;;;;;;4977090;28;20034;-80
2022/06/16 08:52:34;;;;;;;1.92;1.02;;;;;;;;;;4976940;28;20458;-81
2022/06/16 08:55:02;;;;;;;8.15;1.23;;;;;;;;;;4978090;28;20434;-81
2022/06/16 08:57:31;;;;;;;2.58;1.17;;;;;;;;;;4976354;28;20026;-81
2022/06/16 09:00:07;;;;;;;4.15;1.15;;;;;;;;;;4978038;28;20026;-81
2022/06/16 09:02:41;;;;;;;3.17;1.00;;;;;;;;;;4978814;28;20105;-83
2022/06/16 09:05:31;;;;;;;3.78;1.33;;;;;;;;;;4978653;28;20087;-81
2022/06/16 09:08:15;;;;;;;3.83;1.00;;;;;;;;;;4977907;28;20027;-83
2022/06/16 09:11:13;;;;;;;3.17;0.93;;;;;;;;;;4977980;28;20037;-82
2022/06/16 09:13:51;;;;;;;1.40;1.10;;;;;;;;;;4954678;28;20030;-82
2022/06/16 09:16:30;;;;;;;2.40;1.50;;;;;;;;;;4976046;28;20498;-81
2022/06/16 09:19:09;;;;;;;4.78;1.50;;;;;;;;;;4977927;28;20450;-82
2022/06/16 09:21:51;;;;;;;3.17;1.08;;;;;;;;;;4977520;28;20082;-83
2022/06/16 09:24:45;;;;;;;1.55;1.02;;;;;;;;;;4959958;28;20455;-81
2022/06/16 09:27:15;;;;;;;9.20;1.10;;;;;;;;;;4977252;28;20054;-80
2022/06/16 09:30:11;;;;;;;1.90;1.00;;;;;;;;;;4959730;28;20484;-80
2022/06/16 09:32:52;;;;;;;3.33;1.40;;;;;;;;;;4976682;28;20150;-80
2022/06/16 09:35:26;;;;;;;4.70;1.05;;;;;;;;;;4957115;28;20058;-80
2022/06/16 09:37:58;;;;;;;8.05;1.15;;;;;;;;;;4975476;28;20062;-80
2022/06/16 09:40:27;;;;;;;2.88;1.35;;;;;;;;;;4976981;28;20475;-79
2022/06/16 09:42:56;;;;;;;1.88;1.10;;;;;;;;;;4959034;28;20479;-81
2022/06/16 09:45:47;;;;;;;5.07;1.38;;;;;;;;;;4975339;28;20041;-79
2022/06/16 09:48:14;;;;;;;2.65;1.10;;;;;;;;;;4975587;28;20081;-80
2022/06/16 09:50:52;;;;;;;2.95;1.17;;;;;;;;;;4975669;28;20026;-80
2022/06/16 09:53:39;;;;;;;2.97;1.15;;;;;;;;;;4975537;28;20027;-80
2022/06/16 09:56:14;;;;;;;1.30;1.08;;;;;;;;;;4976762;28;20026;-81
2022/06/16 09:58:48;;;;;;;3.15;1.27;;;;;;;;;;4959343;28;20035;-80
2022/06/16 10:01:16;;;;;;;1.73;1.30;;;;;;;;;;4975327;28;20029;-79
2022/06/16 10:03:46;;;;;;;4.80;1.52;;;;;;;;;;4975359;28;20113;-79
2022/06/16 10:06:34;;;;;;;2.65;1.23;;;;;;;;;;4975434;28;20110;-79
2022/06/16 10:09:07;;;;;;;3.60;1.30;;;;;;;;;;4976442;28;20472;-81
2022/06/16 10:11:38;;;;;;;2.88;1.30;;;;;;;;;;4976077;28;20488;-80
2022/06/16 10:14:41;;;;;;;1.92;1.13;;;;;;;;;;4977189;28;20077;-80
2022/06/16 10:17:10;;;;;;;2.60;1.50;;;;;;;;;;4976816;28;20112;-80
2022/06/16 10:19:43;;;;;;;1.20;1.10;;;;;;;;;;4960277;28;20372;-81
2022/06/16 10:22:09;;;;;;;1.58;1.48;;;;;;;;;;4972510;28;20039;-81
2022/06/16 10:24:46;;;;;;;2.45;1.40;;;;;;;;;;4975504;28;20035;-81
2022/06/16 10:27:14;;;;;;;2.40;1.60;;;;;;;;;;4976090;28;20106;-80
2022/06/16 10:29:51;;;;;;;2.72;1.50;;;;;;;;;;4974808;28;20434;-81
2022/06/16 10:32:17;;;;;;;2.80;1.25;;;;;;;;;;4958656;28;20561;-80
2022/06/16 10:34:43;;;;;;;1.98;1.17;;;;;;;;;;4974983;28;20033;-81
2022/06/16 10:37:22;;;;;;;2.80;1.23;;;;;;;;;;4960499;28;20031;-80
2022/06/16 10:39:56;;;;;;;1.15;1.10;;;;;;;;;;4976088;28;20109;-79
2022/06/16 10:42:41;;;;;;;2.53;1.27;;;;;;;;;;4975443;28;20046;-82
2022/06/16 10:45:09;;;;;;;1.92;1.23;;;;;;;;;;4976599;28;20085;-80
2022/06/16 10:47:48;;;;;;;3.00;1.10;;;;;;;;;;4976238;28;20033;-80
2022/06/16 10:50:21;;;;;;;7.05;1.40;;;;;;;;;;4979609;28;20046;-80
2022/06/16 10:52:56;;;;;;;5.22;1.60;;;;;;;;;;4976917;28;20501;-80
2022/06/16 10:55:25;;;;;;;3.80;1.75;;;;;;;;;;4959742;28;20133;-80
2022/06/16 10:58:24;;;;;;;3.72;1.50;;;;;;;;;;4958509;28;20062;-81
2022/06/16 11:01:06;;;;;;;1.58;1.30;;;;;;;;;;4970096;28;20077;-81
2022/06/16 11:03:40;;;;;;;3.08;1.20;;;;;;;;;;4957589;28;20033;-81
2022/06/16 11:06:07;;;;;;;1.35;1.25;;;;;;;;;;4957795;28;20031;-81
2022/06/16 11:08:44;;;;;;;1.70;1.33;;;;;;;;;;4958088;28;20372;-80
2022/06/16 11:11:11;;;;;;;3.20;2.03;;;;;;;;;;4974214;28;20034;-81
2022/06/16 11:13:38;;;;;;;6.65;1.50;;;;;;;;;;4957659;28;20043;-82
2022/06/16 11:16:11;;;;;;;3.00;1.42;;;;;;;;;;4958069;28;20023;-82
2022/06/16 11:18:37;;;;;;;2.65;1.40;;;;;;;;;;4973983;28;20027;-82
2022/06/16 11:21:14;;;;;;;2.03;1.48;;;;;;;;;;4973586;28;20059;-81
2022/06/16 11:23:49;;;;;;;2.50;1.38;;;;;;;;;;4956818;28;20109;-81
2022/06/16 11:26:14;;;;;;;2.13;1.42;;;;;;;;;;4973681;28;20426;-80
2022/06/16 11:28:46;;;;;;;4.18;1.48;;;;;;;;;;4973534;28;20114;-79
2022/06/16 11:31:18;;;;;;;1.45;1.30;;;;;;;;;;4973845;28;20030;-80
2022/06/16 11:37:00;;;;;;;2.70;1.40;;;;;;;;;;4974216;28;20070;-80
2022/06/16 11:39:41;;;;;;;1.85;1.23;;;;;;;;;;4975558;28;20118;-80
2022/06/16 11:42:28;;;;;;;1.40;1.30;;;;;;;;;;4975180;28;20101;-81
2022/06/16 11:45:05;;;;;;;3.15;1.70;;;;;;;;;;4973374;28;20369;-80
2022/06/16 11:47:42;;;;;;;1.83;1.30;;;;;;;;;;4957348;28;20386;-80
2022/06/16 11:50:46;;;;;;;2.55;1.50;;;;;;;;;;4973495;28;20073;-79
2022/06/16 11:53:27;;;;;;;3.17;1.58;;;;;;;;;;4973491;28;20039;-80
2022/06/16 11:56:17;;;;;;;2.25;1.60;;;;;;;;;;4974765;28;20029;-80
2022/06/16 11:59:02;;;;;;;1.92;1.55;;;;;;;;;;4973882;28;20173;-79
2022/06/16 12:01:35;;;;;;;1.50;1.40;;;;;;;;;;4974766;28;20053;-80
2022/06/16 12:04:30;;;;;;;3.80;1.58;;;;;;;;;;4974536;28;20034;-79
2022/06/16 12:07:05;;;;;;;6.93;1.63;;;;;;;;;;4973249;28;20480;-79
2022/06/16 12:09:42;;;;;;;7.82;1.70;;;;;;;;;;4973108;28;20074;-79
2022/06/16 12:12:34;;;;;;;1.77;1.42;;;;;;;;;;4974643;28;20118;-79
2022/06/16 12:15:15;;;;;;;3.35;1.52;;;;;;;;;;4957109;28;20049;-78
2022/06/16 12:17:52;;;;;;;3.38;1.60;;;;;;;;;;4974253;28;20538;-80
2022/06/16 12:20:26;;;;;;;2.30;1.55;;;;;;;;;;4956912;28;20047;-80
2022/06/16 12:23:08;;;;;;;2.22;1.60;;;;;;;;;;4957039;28;20579;-80
2022/06/16 12:25:56;;;;;;;3.05;1.88;;;;;;;;;;4973148;28;20031;-79
2022/06/16 12:28:57;;;;;;;4.55;1.80;;;;;;;;;;4973255;28;20023;-79
2022/06/16 12:31:25;;;;;;;1.73;1.40;;;;;;;;;;4971814;28;20514;-80
2022/06/16 12:34:14;;;;;;;1.40;1.30;;;;;;;;;;4974085;28;20468;-80
2022/06/16 12:36:43;;;;;;;1.63;1.38;;;;;;;;;;4974659;28;20106;-80
2022/06/16 12:39:25;;;;;;;3.13;1.50;;;;;;;;;;4972990;28;20022;-80
2022/06/16 12:41:55;;;;;;;2.45;1.40;;;;;;;;;;4974731;28;20031;-80
2022/06/16 12:44:30;;;;;;;2.50;1.17;;;;;;;;;;4973097;28;20085;-79
2022/06/16 12:47:07;;;;;;;2.13;1.40;;;;;;;;;;4972790;28;20019;-80
2022/06/16 12:50:03;;;;;;;1.50;1.35;;;;;;;;;;4975606;28;20482;-79
2022/06/16 12:52:37;;;;;;;2.35;1.60;;;;;;;;;;4977959;28;20382;-80
2022/06/16 12:55:16;;;;;;;;;;;;;;;;;;4976873;28;20027;-80
2022/06/16 12:57:45;;;;;;;3.72;1.25;;;;;;;;;;4977509;28;19984;-80
2022/06/16 13:00:17;;;;;;;1.98;1.35;;;;;;;;;;4960774;28;20530;-80
2022/06/16 13:02:46;;;;;;;1.60;1.50;;;;;;;;;;4992650;28;20399;-79
2022/06/16 13:05:11;;;;;;;2.53;1.65;;;;;;;;;;4976953;28;20066;-79
2022/06/16 13:07:41;;;;;;;2.47;1.48;;;;;;;;;;4977149;28;20044;-80
2022/06/16 13:10:08;;;;;;;2.65;1.30;;;;;;;;;;4976469;28;20436;-80
2022/06/16 13:12:35;;;;;;;2.72;1.60;;;;;;;;;;4960418;28;20030;-80
2022/06/16 13:15:06;;;;;;;3.67;1.80;;;;;;;;;;4976559;28;20043;-80
2022/06/16 13:17:36;;;;;;;1.75;1.48;;;;;;;;;;4976215;28;20023;-80
2022/06/16 13:20:08;;;;;;;1.48;1.30;;;;;;;;;;4977757;28;20030;-80
2022/06/16 13:22:37;;;;;;;2.45;1.80;;;;;;;;;;4977321;28;20439;-79
2022/06/16 13:25:09;;;;;;;2.30;1.67;;;;;;;;;;4976565;28;20057;-80
2022/06/16 13:27:45;;;;;;;2.88;1.42;;;;;;;;;;4975849;28;20074;-80
2022/06/16 13:30:10;;;;;;;1.90;1.27;;;;;;;;;;4976872;28;20027;-81
2022/06/16 13:32:48;;;;;;;1.45;1.35;;;;;;;;;;4975647;28;20038;-80
2022/06/16 13:35:13;;;;;;;1.60;1.23;;;;;;;;;;4975780;28;20022;-81
2022/06/16 13:37:41;;;;;;;2.65;1.13;;;;;;;;;;4977099;28;20029;-80
2022/06/16 13:40:07;;;;;;;1.75;1.40;;;;;;;;;;4976994;28;20550;-80
2022/06/16 13:42:50;;;;;;;2.30;1.73;;;;;;;;;;4977353;28;20106;-80
2022/06/16 13:45:25;;;;;;;;;;;;;;;;;;4975988;28;20084;-80
2022/06/16 13:48:06;;;;;;;2.45;1.40;;;;;;;;;;4975770;28;19992;-81
2022/06/16 13:50:50;;;;;;;1.30;1.20;;;;;;;;;;4976709;28;20030;-79
2022/06/16 13:53:20;;;;;;;1.42;1.30;;;;;;;;;;4976588;28;20065;-79
2022/06/16 13:56:06;;;;;;;1.42;1.33;;;;;;;;;;4975597;28;20034;-79
2022/06/16 13:58:35;;;;;;;1.45;1.13;;;;;;;;;;4975311;28;20118;-79
2022/06/16 14:01:08;;;;;;;1.27;1.17;;;;;;;;;;4976443;28;20055;-79
2022/06/16 14:03:34;;;;;;;1.58;1.30;;;;;;;;;;4975279;28;20073;-79
2022/06/16 14:06:13;;;;;;;1.73;1.30;;;;;;;;;;4975810;28;20045;-79
2022/06/16 14:08:46;;;;;;;1.95;1.30;;;;;;;;;;4976289;28;20433;-79
2022/06/16 14:11:22;;;;;;;1.77;1.48;;;;;;;;;;4975825;28;20387;-79
2022/06/16 14:14:08;;;;;;;1.52;1.30;;;;;;;;;;4976076;28;20057;-79
2022/06/16 14:16:40;;;;;;;1.55;1.25;;;;;;;;;;4960989;28;20394;-80
2022/06/16 14:19:07;;;;;;;4.30;1.48;;;;;;;;;;4976983;28;20031;-81
2022/06/16 14:21:37;;;;;;;1.95;1.20;;;;;;;;;;4975115;28;20126;-80
2022/06/16 14:24:07;;;;;;;1.60;1.50;;;;;;;;;;4959500;28;20026;-80
2022/06/16 14:26:37;;;;;;;1.58;1.20;;;;;;;;;;4976143;28;20042;-80
2022/06/16 14:29:09;;;;;;;1.20;1.10;;;;;;;;;;4976104;28;20031;-81
2022/06/16 14:31:38;;;;;;;2.10;1.20;;;;;;;;;;4976152;28;20027;-81
2022/06/16 14:34:29;;;;;;;2.85;1.20;;;;;;;;;;4975232;28;20046;-80
2022/06/16 14:36:56;;;;;;;1.70;1.42;;;;;;;;;;4976759;28;20030;-79
2022/06/16 14:39:45;;;;;;;1.50;1.10;;;;;;;;;;4976593;28;20173;-79
2022/06/16 14:42:25;;;;;;;4.05;1.45;;;;;;;;;;4959752;28;20027;-80
2022/06/16 14:44:54;;;;;;;3.20;1.35;;;;;;;;;;4976256;28;20114;-79
2022/06/16 14:47:28;;;;;;;2.13;1.45;;;;;;;;;;4976939;28;20054;-79
2022/06/16 14:50:06;;;;;;;2.65;1.23;;;;;;;;;;4975874;28;20487;-79
2022/06/16 14:52:38;;;;;;;1.20;1.10;;;;;;;;;;4974886;28;20034;-79
2022/06/16 14:55:10;;;;;;;1.40;1.30;;;;;;;;;;4975808;28;20027;-78
2022/06/16 14:57:40;;;;;;;1.58;1.48;;;;;;;;;;4958562;28;20027;-79
2022/06/16 15:00:06;;;;;;;1.33;1.20;;;;;;;;;;4975723;28;20483;-80
2022/06/16 15:02:33;;;;;;;5.75;1.35;;;;;;;;;;4974967;28;20503;-80
2022/06/16 15:05:05;;;;;;;1.73;1.42;;;;;;;;;;4976466;28;20499;-79
2022/06/16 15:07:32;;;;;;;1.90;1.30;;;;;;;;;;4974979;28;20018;-78
2022/06/16 15:09:58;;;;;;;1.60;1.40;;;;;;;;;;4974872;28;20526;-80
2022/06/16 15:12:24;;;;;;;2.40;1.50;;;;;;;;;;4974158;28;20038;-78
2022/06/16 15:14:50;;;;;;;2.60;1.58;;;;;;;;;;4976169;28;20042;-78
2022/06/16 15:20:06;;;;;;;2.97;1.70;;;;;;;;;;4974756;28;20081;-79
2022/06/16 15:22:51;;;;;;;1.58;1.38;;;;;;;;;;4977770;28;20114;-79
2022/06/16 15:25:18;;;;;;;2.13;1.48;;;;;;;;;;4975540;28;20105;-80
2022/06/16 15:27:47;;;;;;;2.35;1.63;;;;;;;;;;4958025;28;20030;-79
2022/06/16 15:30:18;;;;;;;2.22;2.00;;;;;;;;;;4974899;28;20026;-79
2022/06/16 15:38:15;;;;;;;2.65;1.60;;;;;;;;;;4974893;28;20037;-80
2022/06/16 15:40:43;;;;;;;2.00;1.40;;;;;;;;;;4974959;28;20472;-78